Terminal Aerodrome Forecast
Issued by NWS

Home | Current Version | Previous Version | Text Only | Print | Product List | Glossary Off
Versions: 1 2 3 4 5 6 7 8 9 10

017
FTUS43 KICT 201739
TAFRSL
TAF
KRSL 201739Z 2018/2118 01013KT P6SM FEW150
     FM202300 05007KT P6SM FEW150
     FM210600 07007KT P6SM BKN120
     FM211500 08012KT P6SM SCT030 OVC100=

USA.gov is the U.S. government's official web portal to all federal, state and local government web resources and services.